Latest Coastal Weather Observations for Groote Eylandt Airport

IDD60701

Issued at 2:45 pm CST Friday 29 August 2014 (issued every 10 minutes, with the page automatically refreshed every 10 minutes)

About coastal observations | Map of coastal stations | Coastal observations for NT | Marine services | Other Formats
Station Details ID: 014518 Name: GROOTE EYLANDT AIRPORT Lat: -13.97 Lon: 136.46 Height: 13.7 m
Data from the previous 72 hours. | See also: Recent months at Groote Eylandt Airport
Date/Time
CST
Temp

°C
Wind Pressure Rain
since 9am
mm
Weather Cloud Vis
km
Sea
Height
m
Swell
Dir
 
Speed
knots
Gust
knots
hPa Trend Height
m
Period
s
Dir
29/02:30pm 30.7 ESE 8 14 1013.3 - 0.0 - - 10 - - - -
29/02:00pm 30.4 ESE 11 18 1013.7 - 0.0 - - 10 - - - -
29/01:31pm 30.4 E 15 25 1013.9 - 0.0 - - 10 - - - -
29/01:30pm 30.1 E 14 25 1014.0 - 0.0 - - 10 - - - -
29/01:00pm 30.4 E 14 20 1014.4 - 0.0 - - 10 - - - -
29/12:30pm 29.2 E 13 21 1014.4 - 0.0 - - 10 - - - -
29/12:00pm 29.3 ESE 13 22 1014.8 - 0.0 - - 10 - - - -
29/11:30am 28.8 SE 10 18 1015.2 - 0.0 - - 10 - - - -
29/11:00am 28.3 SE 11 20 1015.6 - 0.0 - - 10 - - - -
29/10:48am 28.7 E 15 27 1015.8 - 0.0 - - 10 - - - -
29/10:30am 28.2 SE 9 15 1016.0 - 0.0 - - 10 - - - -
29/10:00am 27.1 SE 9 14 1016.1 - 0.0 - - 10 - - - -
29/09:30am 25.5 SSE 8 13 1016.1 - 0.0 - - 10 - - - -
29/09:00am 24.4 ESE 5 11 1016.1 - 0.0 - - 10 - - - -
29/08:30am 20.2 CALM 0 0 1016.3 - 0.0 - - - - - - -
29/08:00am 16.9 CALM 0 0 1015.9 - 0.0 - - - - - - -
29/07:30am 13.6 CALM 0 0 1015.8 - 0.0 - - - - - - -
29/07:00am 11.2 CALM 0 3 1015.4 - 0.0 - - - - - - -
29/06:30am 10.9 E 3 4 1015.1 - 0.0 - - - - - - -
29/06:00am 11.3 CALM 0 0 1014.5 - 0.0 - - - - - - -
29/05:30am 11.6 CALM 0 0 1014.2 - 0.0 - - - - - - -
29/05:00am 12.0 CALM 0 0 1014.1 - 0.0 - - - - - - -
29/04:30am 12.8 CALM 0 3 1014.0 - 0.0 - - - - - - -
29/04:00am 12.9 ESE 4 5 1013.7 - 0.0 - - - - - - -
29/03:30am 13.2 SE 4 5 1013.8 - 0.0 - - - - - - -
29/03:00am 13.9 ESE 3 4 1013.8 - 0.0 - - - - - - -
29/02:30am 14.7 ESE 3 5 1014.2 - 0.0 - - - - - - -
29/02:00am 14.3 ESE 4 5 1014.5 - 0.0 - - 10 - - - -
29/01:30am 14.9 E 4 5 1014.7 - 0.0 - - 10 - - - -
29/01:00am 14.8 ESE 4 5 1015.0 - 0.0 - - 10 - - - -
29/12:30am 15.3 E 4 5 1015.3 - 0.0 - - 10 - - - -
29/12:00am 16.3 E 3 4 1015.5 - 0.0 - - 10 - - - -
 
Date/Time
CST
Temp

°C
Wind Pressure Rain
since 9am
mm
Weather Cloud Vis
km
Sea
Height
m
Swell
Dir
 
Speed
knots
Gust
knots
hPa Trend Height
m
Period
s
Dir
28/11:30pm 17.2 E 4 4 1015.8 - 0.0 - - 10 - - - -
28/11:00pm 18.1 ESE 5 7 1016.0 - 0.0 - - 10 - - - -
28/10:30pm 18.2 E 4 5 1016.1 - 0.0 - - 10 - - - -
28/10:00pm 19.4 E 4 6 1016.0 - 0.0 - - 10 - - - -
28/09:30pm 19.9 E 5 6 1015.9 - 0.0 - - 10 - - - -
28/09:00pm 20.1 ESE 5 7 1015.6 - 0.0 - - 10 - - - -
28/08:30pm 20.5 ESE 4 6 1015.9 - 0.0 - - 10 - - - -
28/08:00pm 21.2 ESE 4 6 1015.7 - 0.0 - - 10 - - - -
28/07:30pm 21.9 SE 5 8 1015.2 - 0.0 - - 10 - - - -
28/07:00pm 22.6 SE 5 8 1014.9 - 0.0 - - 10 - - - -
28/06:30pm 23.6 SE 4 7 1014.7 - 0.0 - - 10 - - - -
28/06:00pm 24.9 SE 7 13 1014.4 - 0.0 - - 10 - - - -
28/05:30pm 26.1 SE 8 12 1014.2 - 0.0 - - 10 - - - -
28/05:00pm 27.4 ESE 8 13 1013.9 - 0.0 - - 10 - - - -
28/04:30pm 27.6 ESE 8 13 1013.9 - 0.0 - - 10 - - - -
28/04:00pm 28.3 SE 8 16 1013.7 - 0.0 - - 10 - - - -
28/03:30pm 29.6 E 11 15 1013.7 - 0.0 - - 10 - - - -
28/03:00pm 29.6 ESE 10 15 1013.7 - 0.0 - - 10 - - - -
28/02:30pm 29.2 ESE 9 15 1013.9 - 0.0 - - 10 - - - -
28/02:00pm 29.5 ESE 10 18 1014.1 - 0.0 - - 10 - - - -
28/01:30pm 29.7 E 11 20 1014.5 - 0.0 - - 10 - - - -
28/01:00pm 29.1 ESE 9 14 1014.9 - 0.0 - - 10 - - - -
28/12:30pm 29.0 ESE 11 16 1015.4 - 0.0 - - 10 - - - -
28/12:00pm 28.5 E 12 20 1015.5 - 0.0 - - 10 - - - -
28/11:30am 27.6 SE 12 20 1015.8 - 0.0 - - 10 - - - -
28/11:00am 28.1 SE 10 19 1016.0 - 0.0 - - 10 - - - -
28/10:30am 27.4 ESE 12 24 1016.3 - 0.0 - - 10 - - - -
28/10:00am 27.1 SE 11 18 1016.3 - 0.0 - - 10 - - - -
28/09:30am 25.9 SE 11 17 1016.3 - 0.0 - - 10 - - - -
28/09:00am 24.8 SE 10 18 1016.1 - 0.0 - - 10 - - - -
28/08:30am 23.8 SE 6 11 1015.9 - 0.0 - - 10 - - - -
28/08:00am 22.2 SE 7 13 1015.7 - 0.0 - - 10 - - - -
28/07:30am 20.0 SE 6 10 1015.3 - 0.0 - - 10 - - - -
28/07:29am 19.6 SE 5 10 1015.3 - 0.0 - - 10 - - - -
28/07:00am 14.6 ESE 4 5 1015.2 - 0.0 - - - - - - -
28/06:30am 12.5 ESE 4 6 1015.0 - 0.0 - - - - - - -
28/06:00am 12.0 ESE 3 4 1014.6 - 0.0 - - - - - - -
28/05:30am 12.3 CALM 0 0 1014.6 - 0.0 - - - - - - -
28/05:00am 12.0 ESE 3 4 1014.4 - 0.0 - - - - - - -
28/04:30am 11.8 CALM 0 4 1014.4 - 0.0 - - - - - - -
28/04:00am 12.3 CALM 0 0 1014.3 - 0.0 - - - - - - -
28/03:30am 12.4 CALM 0 0 1014.3 - 0.0 - - - - - - -
28/03:00am 12.8 CALM 0 0 1014.3 - 0.0 - - - - - - -
28/02:30am 13.9 CALM 0 0 1014.4 - 0.0 - - - - - - -
28/02:00am 13.3 ESE 1 4 1014.9 - 0.0 - - 10 - - - -
28/01:30am 13.6 ESE 4 5 1015.2 - 0.0 - - 10 - - - -
28/01:00am 13.9 E 3 4 1015.7 - 0.0 - - 10 - - - -
28/12:30am 14.0 ESE 3 4 1015.8 - 0.0 - - 10 - - - -
28/12:00am 14.7 E 3 4 1015.9 - 0.0 - - 10 - - - -
 
Date/Time
CST
Temp

°C
Wind Pressure Rain
since 9am
mm
Weather Cloud Vis
km
Sea
Height
m
Swell
Dir
 
Speed
knots
Gust
knots
hPa Trend Height
m
Period
s
Dir
27/11:30pm 15.2 E 2 4 1016.2 - 0.0 - - 10 - - - -
27/11:00pm 15.7 E 4 4 1016.3 - 0.0 - - 10 - - - -
27/10:36pm 16.1 ESE 3 4 1016.3 - 0.0 - - 10 - - - -
27/10:30pm 16.0 ESE 3 4 1016.3 - 0.0 - - 8 - - - -
27/10:18pm 16.2 ESE 3 3 1016.3 - 0.0 - - 5 - - - -
27/10:00pm 16.7 E 2 4 1016.2 - 0.0 - - 10 - - - -
27/09:30pm 17.3 ENE 3 5 1016.3 - 0.0 - - 10 - - - -
27/09:00pm 18.0 E 3 4 1015.9 - 0.0 - - 10 - - - -
27/08:30pm 18.7 ENE 3 4 1015.8 - 0.0 - - 10 - - - -
27/08:00pm 20.1 ESE 4 5 1015.3 - 0.0 - - 10 - - - -
27/07:30pm 21.2 ESE 4 7 1014.8 - 0.0 - - 10 - - - -
27/07:00pm 21.9 SE 5 8 1014.4 - 0.0 - - 10 - - - -
27/06:30pm 22.8 SSE 5 9 1014.1 - 0.0 - - 10 - - - -
27/06:00pm 24.2 SE 5 8 1013.9 - 0.0 - - 10 - - - -
27/05:30pm 25.5 SE 7 13 1013.8 - 0.0 - - 10 - - - -
27/05:00pm 26.2 SE 8 13 1013.7 - 0.0 - - 10 - - - -
27/04:30pm 26.4 SSE 9 16 1013.7 - 0.0 - - 10 - - - -
27/04:00pm 27.7 SE 9 15 1013.7 - 0.0 - - 10 - - - -
27/03:30pm 27.9 SE 9 15 1013.5 - 0.0 - - 10 - - - -
27/03:00pm 28.1 SE 11 17 1013.5 - 0.0 - - 10 - - - -
27/02:30pm 28.0 SE 11 19 1013.7 - 0.0 - - 10 - - - -
27/02:00pm 28.7 SSE 10 17 1013.8 - 0.0 - - 10 - - - -
27/01:30pm 28.9 SE 10 21 1014.0 - 0.0 - - 10 - - - -
27/01:00pm 29.2 E 15 24 1014.3 - 0.0 - - 10 - - - -
27/12:41pm 29.2 E 15 25 1014.5 - 0.0 - - 10 - - - -
27/12:30pm 28.5 ESE 11 20 1014.7 - 0.0 - - 10 - - - -
27/12:00pm 28.5 ESE 13 22 1014.5 - 0.0 - - 10 - - - -
27/11:30am 28.1 ESE 13 21 1015.0 - 0.0 - - 10 - - - -
27/11:00am 28.8 ESE 12 20 1015.3 - 0.0 - - 10 - - - -
27/10:49am 27.8 ESE 15 26 1015.5 - 0.0 - - 10 - - - -
27/10:30am 28.4 ESE 11 20 1015.7 - 0.0 - - 10 - - - -
27/10:00am 27.1 ESE 13 23 1015.7 - 0.0 - - 10 - - - -
27/09:30am 26.2 SE 12 21 1015.8 - 0.0 - - 10 - - - -
27/09:00am 25.4 SE 9 17 1015.5 - 0.0 - - 10 - - - -
27/08:30am 23.8 SE 6 12 1015.7 - 0.0 - - 10 - - - -
27/08:00am 20.8 SE 4 6 1015.4 - 0.0 - - 10 - - - -
27/07:53am 20.2 ESE 4 6 1015.4 - 0.0 - - - - - - -
27/07:30am 15.2 E 4 5 1015.2 - 0.0 - - - - - - -
27/07:00am 12.1 CALM 0 0 1014.7 - 0.0 - - - - - - -
27/06:30am 11.7 E 4 5 1014.4 - 0.0 - - - - - - -
27/06:00am 11.9 E 4 5 1013.9 - 0.0 - - - - - - -
27/05:30am 12.0 CALM 0 0 1013.8 - 0.0 - - - - - - -
27/05:00am 12.6 E 2 4 1013.8 - 0.0 - - - - - - -
27/04:30am 12.9 CALM 0 0 1013.8 - 0.0 - - - - - - -
27/04:00am 13.1 CALM 0 0 1013.6 - 0.0 - - - - - - -
27/03:30am 13.6 CALM 0 0 1013.7 - 0.0 - - - - - - -
27/03:00am 14.2 CALM 0 0 1013.7 - 0.0 - - - - - - -
27/02:30am 14.9 CALM 0 0 1014.0 - 0.0 - - - - - - -
27/02:00am 15.4 CALM 0 0 1014.1 - 0.0 - - 10 - - - -
27/01:31am 16.1 CALM 0 0 1014.2 - 0.0 - - 10 - - - -
27/01:30am 16.1 CALM 0 0 1014.2 - 0.0 - - 10 - - - -
27/01:21am 16.3 CALM 0 0 1014.3 - 0.0 - - 5 - - - -
27/01:00am 16.8 CALM 0 0 1014.5 - 0.0 - - 10 - - - -
27/12:30am 17.2 CALM 0 0 1014.6 - 0.0 - - 10 - - - -
27/12:00am 17.8 E 3 3 1014.8 - 0.0 - - 10 - - - -
 
Date/Time
CST
Temp

°C
Wind Pressure Rain
since 9am
mm
Weather Cloud Vis
km
Sea
Height
m
Swell
Dir
 
Speed
knots
Gust
knots
hPa Trend Height
m
Period
s
Dir
26/11:30pm 18.4 CALM 0 0 1015.2 - 0.0 - - 10 - - - -
26/11:00pm 19.2 CALM 0 0 1015.3 - 0.0 - - 10 - - - -
26/10:30pm 20.9 NNE 1 3 1015.4 - 0.0 - - 10 - - - -
26/10:00pm 21.4 ESE 4 6 1015.7 - 0.0 - - 10 - - - -
26/09:30pm 21.7 ESE 5 7 1015.7 - 0.0 - - 10 - - - -
26/09:00pm 22.0 ESE 4 6 1015.3 - 0.0 - - 10 - - - -
26/08:30pm 22.5 ESE 4 6 1015.1 - 0.0 - - 10 - - - -
26/08:00pm 23.1 ESE 6 9 1014.9 - 0.0 - - 10 - - - -
26/07:30pm 23.6 ESE 7 12 1014.6 - 0.0 - - 10 - - - -
26/07:00pm 24.1 ESE 9 17 1014.1 - 0.0 - - 10 - - - -
26/06:30pm 24.6 ESE 8 14 1013.7 - 0.0 - - 10 - - - -
26/06:00pm 25.5 ESE 11 16 1013.2 - 0.0 - - 10 - - - -
26/05:30pm 26.5 ESE 12 22 1013.2 - 0.0 - - 10 - - - -
26/05:00pm 27.7 ESE 10 17 1012.9 - 0.0 - - 10 - - - -
26/04:30pm 28.1 ESE 11 19 1012.8 - 0.0 - - 10 - - - -
26/04:00pm 29.8 ESE 8 13 1012.6 - 0.0 - - 10 - - - -
26/03:30pm 30.0 SE 10 15 1012.5 - 0.0 - Partly cloudy 10 - - - -
26/03:00pm 30.5 ESE 8 13 1012.4 - 0.0 - - 10 - - - -

Other Formats:

Comma delimited format used in spreadsheet applications
http://www.bom.gov.au/fwo/IDD60701/IDD60701.94153.axf

JavaScript Object Notation format (JSON) in row-major order
http://www.bom.gov.au/fwo/IDD60701/IDD60701.94153.json